153 км

Карта отелей и гостиниц, располагающихся рядом с аэропортом 153 км :

153 км Красноярский край 69° 28' 9.3612" N, 85° 56' 26.88" E
153 км Красноярский край 69° 28' 9.3612" N, 85° 56' 26.88" E
Код аэродрома ИКАО: 
HDT5
Код аэродрома RU: 
ХДТ5
Координаты: 
N69.46927° E085.94080°
Превышение над уровнем моря : 
25
Основная полоса: 
Курс магнитный: 
Длина основной ВПП: 
Ширина основной ВПП: 
Покрытие основной ВПП: 
Освещение ВПП: 
Тип: 
Вертодром
Класс аэродрома: 
Принадлежность: 
ГА
Статус: 
Действующий
Сайт: 
E-mail аэродрома: 
Страна: 
Россия
Регион: 
Красноярский край
Город: 
Дополнительная информация: 

Найти трансфер

С помощью этой формы Вы можете найти трансфер из аэропорта 153 км в город, аэропорт или вокзал:

Карта места

Javascript is required to view this map.

Погода в аэропортах:

Авиационная погода в Борисполе

Регион: 
Погода METAR: 
UKBB 271030Z 12009MPS 080V150 5000 BR BKN040 16/14 Q1008 R18L/290050 TEMPO 14011G18MPS 2100 -TSRA SQ BKN014CB
Время наблюдения: 
2020-09-27T10:30:00Z
Температура C: 
16.0
Точка росы: 
14.0
Направление ветра: 
120
Скорость ветра (узлы): 
17
Метеорологическая видимость: 
3.11
Явления погоды: 
BR
Условия полета: 
MVFR
Аэропорт подробнее: 

Авиационная погода в Хомутово

Регион: 
Погода METAR: 
UHSS 271030Z 35005MPS 9999 -SHRA BKN032CB 08/07 Q1015 R01/250255 NOSIG RMK MT OBSC QFE760/1013
Время наблюдения: 
2020-09-27T10:30:00Z
Температура C: 
8.0
Точка росы: 
7.0
Направление ветра: 
350
Скорость ветра (узлы): 
10
Метеорологическая видимость: 
6.21
Явления погоды: 
-SHRA
Условия полета: 
VFR
Аэропорт подробнее: 

Авиационная погода в Элисте

Регион: 
Погода METAR: 
URWI 271030Z 12012MPS 9000 -DS NSC 22/01 Q1022 R09/010065 TEMPO 12013G20MPS 1500 -DS
Время наблюдения: 
2020-09-27T10:30:00Z
Температура C: 
22.0
Точка росы: 
1.0
Направление ветра: 
120
Скорость ветра (узлы): 
23
Метеорологическая видимость: 
5.59
Явления погоды: 
-DS
Условия полета: 
VFR
Аэропорт подробнее: 

Авиационная погода в Мирном

Регион: 
Погода METAR: 
UERR 270400Z 35004MPS 3000 HZ NSC 07/01 Q1004 R25/250337 NOSIG RMK QFE722/0963
Время наблюдения: 
2020-09-27T04:00:00Z
Температура C: 
7.0
Точка росы: 
1.0
Направление ветра: 
350
Скорость ветра (узлы): 
8
Метеорологическая видимость: 
1.86
Явления погоды: 
HZ
Условия полета: 
IFR
Аэропорт подробнее: